LSZH/ZRH METAR and TAF weather

Enter ICAO airport designator
Station Type Date Time Source
LSZH METAR 2023/01/30 11:50 UTC NOAA

LSZH 301150Z 22011KT 9999 SCT027 02/M04 Q1024 NOSIG


Station Type Date Time Source
LSZH Decoded METAR 2023/01/30 11:50 UTC NOAA

Zurich-Kloten, Switzerland (LSZH) 47-29N 008-32E 432M
Jan 30, 2023 - 06:50 AM EST / 2023.01.30 1150 UTC
Wind: from the SW (220 degrees) at 13 MPH (11 KT):0
Visibility: greater than 7 mile(s):0
Sky conditions: partly cloudy
Temperature: 35 F (2 C)
Windchill: 26 F (-3 C):1
Dew Point: 24 F (-4 C)
Relative Humidity: 64%
Pressure (altimeter): 30.24 in. Hg (1024 hPa)
ob: LSZH 301150Z 22011KT 9999 SCT027 02/M04 Q1024 NOSIG
cycle: 12

Station Type Date Time Source
LSZH TAF 2023/01/30 12:33 UTC NOAA

TAF LSZH 301125Z 3012/3118 26009KT 9999 FEW023 BKN035 TX04/3014Z TNM02/3105Z TX05/3114Z
TEMPO 3014/3020 4500 -SNRA PROB40
TEMPO 3015/3019 2500 -SN BKN008 PROB40 3019/3108 BKN008
BECMG 3022/3024 VRB03KT

Example: see airport list